Akvile — LYJM — position and weather

sailwx.info

Track history (hours):
 
Tides and Currents Weather Stations Pressure Air Temp Water Temp Dewpoint Dewpoint Depression Visibility Wind Speed Wind Dir Waves Ship Positions

Akvile

Last reported at 2015-Apr-01 18:11 UTC. Time now 2015-Apr-02 00:11 UTC.
Position N 42°50' E 009°42'.

Length 103 m; draft 6.4 m.

Type: Ship. MMSI: 277073000.

Date/timePositionNaut miles runAvg speedWind from/ knotsBaromVisibWave heightAir tempDewpointWater temp
2015-Apr-01 18:11N 42°50' E 009°42'711.0
2015-Apr-01 17:33N 42°56' E 009°40'1010.0
2015-Apr-01 16:33N 43°06' E 009°39'9 9.3
2015-Apr-01 15:33N 43°15' E 009°42'9 9.5
2015-Apr-01 14:33N 43°25' E 009°44'10 9.7
2015-Apr-01 13:33N 43°34' E 009°45'1010.0
2015-Apr-01 12:33N 43°44' E 009°48'1010.5
2015-Apr-01 11:33N 43°54' E 009°50'10 9.8
2015-Apr-01 10:33N 44°04' E 009°51'2 2.5
2015-Apr-01 09:33N 44°07' E 009°50'0 0.0
2015-Apr-01 08:33N 44°07' E 009°50'0 0.0
2015-Apr-01 07:33N 44°07' E 009°50'0 0.0
2015-Apr-01 06:33N 44°07' E 009°50'0 0.0
2015-Apr-01 05:33N 44°07' E 009°50'0 0.0
2015-Apr-01 04:33N 44°07' E 009°50'0 0.0
2015-Apr-01 03:33N 44°07' E 009°50'0 0.0
2015-Apr-01 02:30N 44°07' E 009°50'0 0.0
2015-Apr-01 01:33N 44°07' E 009°50'0 0.0
2015-Apr-01 00:33N 44°07' E 009°50'0 0.0
2015-Mar-31 23:33N 44°07' E 009°50'0 0.0
2015-Mar-31 22:33N 44°07' E 009°50'0 0.0
2015-Mar-31 21:33N 44°07' E 009°50'0 0.0
2015-Mar-31 20:33N 44°07' E 009°50'0 0.0
2015-Mar-31 19:33N 44°07' E 009°50'0 0.0
2015-Mar-31 18:33N 44°07' E 009°50'0 0.0
2015-Mar-31 17:33N 44°07' E 009°50'0 0.0
2015-Mar-31 16:33N 44°07' E 009°50'0 0.0
2015-Mar-31 15:27N 44°07' E 009°50'0 0.0
2015-Mar-31 14:33N 44°07' E 009°50'0 0.0
2015-Mar-31 13:33N 44°07' E 009°50'0 0.0
2015-Mar-31 12:33N 44°07' E 009°50'0 0.0
2015-Mar-31 11:33N 44°07' E 009°50'0 0.0
2015-Mar-31 10:33N 44°07' E 009°50'0 0.0
2015-Mar-31 09:33N 44°07' E 009°50'0 0.0
2015-Mar-31 08:33N 44°07' E 009°50'0 0.0
2015-Mar-31 07:33N 44°07' E 009°50'0 0.0
2015-Mar-31 06:30N 44°07' E 009°50'0 0.0
2015-Mar-31 05:33N 44°07' E 009°50'0 0.0
2015-Mar-31 04:33N 44°07' E 009°50'0 0.0
2015-Mar-31 03:33N 44°07' E 009°50'0 0.0
2015-Mar-31 02:33N 44°07' E 009°50'0 0.0
2015-Mar-31 01:33N 44°07' E 009°50'0 0.0
2015-Mar-31 00:33N 44°07' E 009°50'0 0.0
2015-Mar-30 23:33N 44°07' E 009°50'0 0.0
2015-Mar-30 22:33N 44°07' E 009°50'4 4.5
2015-Mar-30 21:34N 44°03' E 009°53'1111.4
2015-Mar-30 20:33N 43°51' E 009°50'1212.1
2015-Mar-30 19:34N 43°40' E 009°43'1211.7
2015-Mar-30 18:33N 43°30' E 009°36'1110.7
2015-Mar-30 17:34N 43°19' E 009°33'10 9.9
2015-Mar-30 16:33N 43°11' E 009°40'2812.1
2015-Mar-30 14:12N 42°43' E 009°47'  
2015-Mar-25 23:26N 34°35' E 011°33'1110.3
2015-Mar-25 22:22N 34°31' E 011°21'  
Track history (hours):
 
Tides and Currents Weather Stations Pressure Air Temp Water Temp Dewpoint Dewpoint Depression Visibility Wind Speed Wind Dir Waves Ship Positions

Akvile

Last reported at 2015-Apr-01 18:11 UTC. Time now 2015-Apr-02 00:11 UTC.
Position N 42°50' E 009°42'.

Length 103 m; draft 6.4 m.

Type: Ship. MMSI: 277073000.

Date/timePositionNaut miles runAvg speedWind from/ knotsBaromVisibWave heightAir tempDewpointWater temp
2015-Apr-01 18:11N 42°50' E 009°42'711.0
2015-Apr-01 17:33N 42°56' E 009°40'1010.0
2015-Apr-01 16:33N 43°06' E 009°39'9 9.3
2015-Apr-01 15:33N 43°15' E 009°42'9 9.5
2015-Apr-01 14:33N 43°25' E 009°44'10 9.7
2015-Apr-01 13:33N 43°34' E 009°45'1010.0
2015-Apr-01 12:33N 43°44' E 009°48'1010.5
2015-Apr-01 11:33N 43°54' E 009°50'10 9.8
2015-Apr-01 10:33N 44°04' E 009°51'2 2.5
2015-Apr-01 09:33N 44°07' E 009°50'0 0.0
2015-Apr-01 08:33N 44°07' E 009°50'0 0.0
2015-Apr-01 07:33N 44°07' E 009°50'0 0.0
2015-Apr-01 06:33N 44°07' E 009°50'0 0.0
2015-Apr-01 05:33N 44°07' E 009°50'0 0.0
2015-Apr-01 04:33N 44°07' E 009°50'0 0.0
2015-Apr-01 03:33N 44°07' E 009°50'0 0.0
2015-Apr-01 02:30N 44°07' E 009°50'0 0.0
2015-Apr-01 01:33N 44°07' E 009°50'0 0.0
2015-Apr-01 00:33N 44°07' E 009°50'0 0.0
2015-Mar-31 23:33N 44°07' E 009°50'0 0.0
2015-Mar-31 22:33N 44°07' E 009°50'0 0.0
2015-Mar-31 21:33N 44°07' E 009°50'0 0.0
2015-Mar-31 20:33N 44°07' E 009°50'0 0.0
2015-Mar-31 19:33N 44°07' E 009°50'0 0.0
2015-Mar-31 18:33N 44°07' E 009°50'0 0.0
2015-Mar-31 17:33N 44°07' E 009°50'0 0.0
2015-Mar-31 16:33N 44°07' E 009°50'0 0.0
2015-Mar-31 15:27N 44°07' E 009°50'0 0.0
2015-Mar-31 14:33N 44°07' E 009°50'0 0.0
2015-Mar-31 13:33N 44°07' E 009°50'0 0.0
2015-Mar-31 12:33N 44°07' E 009°50'0 0.0
2015-Mar-31 11:33N 44°07' E 009°50'0 0.0
2015-Mar-31 10:33N 44°07' E 009°50'0 0.0
2015-Mar-31 09:33N 44°07' E 009°50'0 0.0
2015-Mar-31 08:33N 44°07' E 009°50'0 0.0
2015-Mar-31 07:33N 44°07' E 009°50'0 0.0
2015-Mar-31 06:30N 44°07' E 009°50'0 0.0
2015-Mar-31 05:33N 44°07' E 009°50'0 0.0
2015-Mar-31 04:33N 44°07' E 009°50'0 0.0
2015-Mar-31 03:33N 44°07' E 009°50'0 0.0
2015-Mar-31 02:33N 44°07' E 009°50'0 0.0
2015-Mar-31 01:33N 44°07' E 009°50'0 0.0
2015-Mar-31 00:33N 44°07' E 009°50'0 0.0
2015-Mar-30 23:33N 44°07' E 009°50'0 0.0
2015-Mar-30 22:33N 44°07' E 009°50'4 4.5
2015-Mar-30 21:34N 44°03' E 009°53'1111.4
2015-Mar-30 20:33N 43°51' E 009°50'1212.1
2015-Mar-30 19:34N 43°40' E 009°43'1211.7
2015-Mar-30 18:33N 43°30' E 009°36'1110.7
2015-Mar-30 17:34N 43°19' E 009°33'10 9.9
2015-Mar-30 16:33N 43°11' E 009°40'2812.1
2015-Mar-30 14:12N 42°43' E 009°47'  
2015-Mar-25 23:26N 34°35' E 011°33'1110.3
2015-Mar-25 22:22N 34°31' E 011°21'  

Dump ship's entire track history